createdAt,value
2023-02-26T00:01:41.131Z,12.70
2023-02-26T00:04:10.176Z,12.70
2023-02-26T00:06:52.240Z,12.70
2023-02-26T00:09:20.392Z,12.30
2023-02-26T00:11:50.521Z,12.50
2023-02-26T00:14:18.856Z,12.60
2023-02-26T00:16:50.041Z,12.30
2023-02-26T00:19:18.194Z,12.40
2023-02-26T00:21:46.404Z,12.20
2023-02-26T00:24:14.174Z,11.90
2023-02-26T00:26:41.974Z,12.00
2023-02-26T00:29:11.726Z,11.80
2023-02-26T00:31:40.212Z,12.00
2023-02-26T00:34:12.200Z,12.00
2023-02-26T00:36:45.252Z,12.00
2023-02-26T00:39:29.164Z,12.00
2023-02-26T00:41:57.493Z,12.20
2023-02-26T00:44:27.316Z,12.30
2023-02-26T00:47:01.620Z,12.30
2023-02-26T00:49:44.472Z,12.30
2023-02-26T00:52:17.370Z,12.30
2023-02-26T00:54:45.319Z,12.30
2023-02-26T00:57:15.889Z,12.20
2023-02-26T00:59:45.772Z,12.30
2023-02-26T01:02:13.561Z,12.30
2023-02-26T01:04:42.764Z,12.20
2023-02-26T01:07:11.298Z,12.10
2023-02-26T01:09:39.704Z,11.90
2023-02-26T01:12:10.924Z,12.00
2023-02-26T01:14:39.617Z,12.10
2023-02-26T01:17:15.193Z,11.80
2023-02-26T01:19:46.133Z,11.90
2023-02-26T01:22:19.923Z,12.00
2023-02-26T01:24:49.744Z,12.00
2023-02-26T01:27:17.930Z,12.00
2023-02-26T01:29:46.133Z,12.00
2023-02-26T01:32:20.992Z,12.10
2023-02-26T01:34:56.083Z,12.00
2023-02-26T01:37:30.028Z,11.80
2023-02-26T01:40:17.459Z,11.90
2023-02-26T01:42:47.645Z,12.00
2023-02-26T01:45:20.608Z,11.90
2023-02-26T01:47:57.058Z,11.80
2023-02-26T01:50:29.844Z,11.90
2023-02-26T01:53:24.233Z,11.80
2023-02-26T01:55:56.290Z,11.80
2023-02-26T01:58:25.558Z,11.80
2023-02-26T02:00:53.393Z,11.80
2023-02-26T02:03:25.324Z,11.70
2023-02-26T02:05:57.438Z,11.70
2023-02-26T02:08:26.020Z,11.70
2023-02-26T02:10:54.805Z,11.70
2023-02-26T02:13:36.276Z,11.60
2023-02-26T02:16:16.111Z,11.30
2023-02-26T02:18:53.335Z,11.60
2023-02-26T02:21:48.996Z,11.60
2023-02-26T02:24:25.855Z,11.60
2023-02-26T02:27:04.661Z,11.60
2023-02-26T02:30:06.169Z,11.60
2023-02-26T02:32:39.753Z,11.50
2023-02-26T02:35:16.586Z,11.70
2023-02-26T02:37:49.228Z,11.80
2023-02-26T02:40:20.829Z,11.80
2023-02-26T02:42:53.276Z,11.90
2023-02-26T02:45:27.327Z,11.80
2023-02-26T02:48:01.923Z,11.40
2023-02-26T02:50:35.101Z,11.50
2023-02-26T02:53:07.125Z,11.50
2023-02-26T02:55:38.253Z,11.50
2023-02-26T02:58:09.668Z,11.20
2023-02-26T03:00:41.334Z,11.40
2023-02-26T03:03:18.482Z,11.50
2023-02-26T03:05:46.385Z,11.40
2023-02-26T03:08:18.461Z,11.50
2023-02-26T03:10:48.270Z,11.30
2023-02-26T03:13:18.502Z,11.10
2023-02-26T03:15:55.887Z,11.00
2023-02-26T03:18:39.579Z,11.30
2023-02-26T03:21:12.783Z,11.50
2023-02-26T03:23:47.299Z,11.10
2023-02-26T03:26:28.479Z,11.30
2023-02-26T03:29:01.169Z,11.00
2023-02-26T03:31:33.679Z,11.30
2023-02-26T03:34:07.587Z,11.20
2023-02-26T03:36:41.410Z,11.40
2023-02-26T03:39:24.261Z,11.40
2023-02-26T03:41:57.557Z,11.20
2023-02-26T03:44:29.601Z,11.10
2023-02-26T03:47:01.744Z,11.10
2023-02-26T03:49:35.859Z,11.00
2023-02-26T03:52:05.882Z,11.10
2023-02-26T03:54:46.346Z,11.20
2023-02-26T03:57:34.538Z,11.10
2023-02-26T04:00:21.189Z,11.20
2023-02-26T04:02:56.564Z,11.10
2023-02-26T04:05:28.835Z,11.30
2023-02-26T04:07:57.853Z,11.30
2023-02-26T04:10:33.732Z,10.90
2023-02-26T04:13:03.626Z,11.10
2023-02-26T04:15:31.448Z,11.10
2023-02-26T04:17:59.271Z,11.10
2023-02-26T04:20:29.578Z,11.20
2023-02-26T04:22:57.399Z,11.20
2023-02-26T04:25:25.274Z,11.20
2023-02-26T04:27:54.100Z,11.10
2023-02-26T04:30:22.044Z,11.00
2023-02-26T04:32:49.969Z,11.10
2023-02-26T04:35:18.066Z,11.00
2023-02-26T04:37:47.343Z,11.10
2023-02-26T04:40:15.383Z,11.20
2023-02-26T04:42:44.883Z,11.20
2023-02-26T04:45:13.861Z,11.10
2023-02-26T04:47:41.664Z,11.10
2023-02-26T04:50:10.934Z,11.10
2023-02-26T04:52:38.800Z,11.10
2023-02-26T04:55:09.356Z,11.00
2023-02-26T04:57:39.537Z,11.10
2023-02-26T05:00:08.596Z,11.00
2023-02-26T05:02:39.043Z,11.00
2023-02-26T05:05:07.926Z,10.90
2023-02-26T05:07:35.805Z,11.00
2023-02-26T05:10:03.672Z,10.80
2023-02-26T05:12:33.415Z,10.90
2023-02-26T05:15:01.719Z,10.90
2023-02-26T05:17:29.686Z,10.90
2023-02-26T05:19:57.487Z,10.90
2023-02-26T05:22:25.294Z,11.00
2023-02-26T05:24:53.713Z,10.90
2023-02-26T05:27:21.553Z,10.70
2023-02-26T05:29:50.783Z,10.60
2023-02-26T05:32:18.722Z,10.70
2023-02-26T05:34:46.540Z,10.70
2023-02-26T05:37:14.324Z,10.80
2023-02-26T05:39:42.128Z,10.90
2023-02-26T05:42:10.247Z,10.50
2023-02-26T05:44:38.050Z,10.60
2023-02-26T05:47:07.683Z,10.70
2023-02-26T05:49:35.536Z,10.60
2023-02-26T05:52:03.370Z,10.60
2023-02-26T05:54:31.152Z,10.60
2023-02-26T05:56:58.921Z,10.70
2023-02-26T05:59:27.028Z,10.60
2023-02-26T06:01:54.856Z,10.60
2023-02-26T06:04:24.000Z,10.70
2023-02-26T06:06:51.845Z,10.90
2023-02-26T06:09:19.617Z,11.00
2023-02-26T06:11:47.372Z,11.10
2023-02-26T06:14:15.182Z,11.30
2023-02-26T06:16:43.049Z,11.40
2023-02-26T06:19:10.856Z,11.30
2023-02-26T06:21:40.021Z,11.30
2023-02-26T06:24:08.560Z,11.20
2023-02-26T06:26:36.476Z,11.30
2023-02-26T06:29:04.285Z,11.20
2023-02-26T06:31:32.200Z,11.10
2023-02-26T06:34:00.004Z,11.20
2023-02-26T06:36:28.114Z,11.30
2023-02-26T06:38:57.300Z,11.20
2023-02-26T06:41:25.056Z,11.00
2023-02-26T06:43:52.890Z,10.90
2023-02-26T06:46:20.701Z,10.80
2023-02-26T06:48:48.513Z,10.80
2023-02-26T06:51:16.313Z,10.80
2023-02-26T06:53:44.122Z,11.00
2023-02-26T06:56:13.271Z,11.40
2023-02-26T06:58:41.131Z,11.40
2023-02-26T07:01:08.982Z,11.30
2023-02-26T07:03:36.930Z,11.10
2023-02-26T07:06:25.954Z,10.80
2023-02-26T07:08:56.055Z,10.80
2023-02-26T07:11:25.396Z,10.90
2023-02-26T07:13:53.273Z,10.90
2023-02-26T07:16:21.112Z,10.90
2023-02-26T07:18:48.947Z,10.90
2023-02-26T07:21:16.863Z,10.90
2023-02-26T07:23:44.678Z,10.60
2023-02-26T07:26:12.505Z,10.90
2023-02-26T07:28:41.612Z,11.20
2023-02-26T07:31:09.577Z,10.90
2023-02-26T07:33:38.641Z,10.80
2023-02-26T07:36:07.092Z,10.50
2023-02-26T07:38:34.887Z,10.40
2023-02-26T07:41:02.762Z,10.40
2023-02-26T07:43:30.541Z,10.50
2023-02-26T07:45:59.717Z,10.30
2023-02-26T07:48:27.634Z,10.70
2023-02-26T07:50:55.795Z,10.60
2023-02-26T07:53:23.827Z,11.00
2023-02-26T07:55:51.668Z,11.00
2023-02-26T07:58:19.812Z,11.30
2023-02-26T08:00:47.702Z,11.50
2023-02-26T08:03:17.300Z,11.40
2023-02-26T08:05:45.109Z,12.20
2023-02-26T08:08:12.938Z,12.80
2023-02-26T08:10:42.243Z,13.20
2023-02-26T08:13:10.802Z,13.60
2023-02-26T08:15:39.040Z,13.70
2023-02-26T08:18:06.912Z,13.90
2023-02-26T08:20:36.138Z,13.80
2023-02-26T08:23:04.160Z,14.20
2023-02-26T08:25:32.241Z,14.20
2023-02-26T08:28:01.044Z,14.20
2023-02-26T08:30:29.206Z,14.40
2023-02-26T08:32:57.092Z,14.10
2023-02-26T08:35:25.625Z,14.40
2023-02-26T08:37:54.882Z,14.40
2023-02-26T08:40:22.747Z,14.70
2023-02-26T08:42:50.562Z,15.10
2023-02-26T08:45:18.476Z,15.30
2023-02-26T08:47:56.276Z,15.40
2023-02-26T08:50:25.508Z,15.30
2023-02-26T08:52:54.666Z,15.20
2023-02-26T08:55:22.834Z,15.20
2023-02-26T08:57:51.437Z,15.20
2023-02-26T09:00:19.990Z,15.10
2023-02-26T09:02:48.192Z,15.20
2023-02-26T09:05:16.129Z,15.10
2023-02-26T09:07:44.879Z,15.20
2023-02-26T09:10:15.225Z,15.60
2023-02-26T09:12:43.327Z,15.30
2023-02-26T09:15:12.392Z,15.40
2023-02-26T09:17:40.895Z,15.40
2023-02-26T09:20:10.129Z,15.70
2023-02-26T09:22:38.386Z,15.60
2023-02-26T09:25:07.172Z,15.80
2023-02-26T09:27:36.489Z,15.80
2023-02-26T09:30:05.266Z,15.50
2023-02-26T09:32:33.528Z,15.40
2023-02-26T09:35:02.560Z,15.30
2023-02-26T09:37:30.387Z,15.10
2023-02-26T09:39:58.263Z,15.10
2023-02-26T09:42:39.470Z,15.10
2023-02-26T09:45:27.645Z,15.40
2023-02-26T09:47:56.092Z,15.30
2023-02-26T09:50:27.176Z,14.90
2023-02-26T09:52:59.474Z,15.00
2023-02-26T09:55:31.260Z,15.10
2023-02-26T09:58:04.966Z,15.10
2023-02-26T10:00:38.275Z,14.80
2023-02-26T10:03:19.675Z,14.50
2023-02-26T10:05:58.757Z,14.40
2023-02-26T10:08:33.293Z,14.60
2023-02-26T10:11:06.617Z,14.60
2023-02-26T10:13:56.220Z,14.20
2023-02-26T10:16:28.542Z,14.30
2023-02-26T10:19:02.119Z,14.00
2023-02-26T10:21:34.971Z,14.10
2023-02-26T10:24:08.312Z,14.20
2023-02-26T10:26:41.195Z,13.90
2023-02-26T10:29:18.084Z,14.20
2023-02-26T10:31:56.670Z,14.30
2023-02-26T10:34:30.466Z,13.30
2023-02-26T10:37:04.794Z,12.70
2023-02-26T10:39:39.716Z,12.20
2023-02-26T10:42:14.551Z,11.30
2023-02-26T10:44:50.566Z,10.60
2023-02-26T10:47:29.912Z,10.60
2023-02-26T10:50:02.480Z,10.80
2023-02-26T10:52:32.590Z,11.10
2023-02-26T10:55:30.360Z,11.20
2023-02-26T10:58:05.984Z,10.70
2023-02-26T11:00:36.242Z,10.50
2023-02-26T11:03:05.607Z,10.20
2023-02-26T11:05:35.276Z,10.80
2023-02-26T11:08:06.457Z,10.70
2023-02-26T11:10:43.370Z,10.90
2023-02-26T11:13:12.890Z,11.30
2023-02-26T11:15:43.380Z,12.00
2023-02-26T11:18:16.883Z,12.00
2023-02-26T11:20:46.663Z,11.90
2023-02-26T11:23:18.220Z,12.40
2023-02-26T11:25:46.699Z,12.40
2023-02-26T11:28:23.191Z,12.60
2023-02-26T11:30:54.288Z,12.10
2023-02-26T11:33:29.312Z,12.00
2023-02-26T11:36:01.234Z,12.10
2023-02-26T11:38:30.062Z,12.20
2023-02-26T11:40:59.299Z,12.50
2023-02-26T11:43:34.316Z,12.60
2023-02-26T11:46:05.744Z,12.40
2023-02-26T11:48:40.568Z,12.60
2023-02-26T11:51:11.163Z,12.60
2023-02-26T11:53:43.914Z,12.70
2023-02-26T11:56:14.508Z,12.80
2023-02-26T11:58:46.563Z,12.50
2023-02-26T12:01:18.007Z,12.70
2023-02-26T12:03:48.428Z,12.50
2023-02-26T12:06:18.824Z,12.40
2023-02-26T12:08:47.156Z,12.40
2023-02-26T12:11:35.254Z,12.70
2023-02-26T12:14:17.465Z,12.60
2023-02-26T12:16:56.955Z,12.40
2023-02-26T12:19:37.776Z,12.30
2023-02-26T12:22:27.875Z,12.50
2023-02-26T12:25:21.631Z,12.30
2023-02-26T12:28:12.285Z,12.30
2023-02-26T12:31:16.560Z,12.40
2023-02-26T12:33:56.206Z,12.50
2023-02-26T12:36:48.454Z,12.50
2023-02-26T12:39:33.392Z,12.30
2023-02-26T12:42:17.230Z,13.00
2023-02-26T12:45:19.143Z,12.30
2023-02-26T12:47:57.196Z,12.90
2023-02-26T12:50:43.860Z,13.20
2023-02-26T12:53:36.768Z,12.50
2023-02-26T12:56:28.232Z,12.70
2023-02-26T12:59:09.004Z,12.50
2023-02-26T13:02:00.622Z,13.00
2023-02-26T13:05:01.002Z,13.00
2023-02-26T13:07:50.318Z,13.60
2023-02-26T13:10:28.120Z,13.00
2023-02-26T13:13:07.171Z,12.80
2023-02-26T13:15:59.300Z,12.10
2023-02-26T13:18:37.221Z,12.40
2023-02-26T13:21:08.348Z,12.10
2023-02-26T13:23:43.425Z,12.20
2023-02-26T13:26:13.997Z,12.30
2023-02-26T13:28:45.778Z,12.20
2023-02-26T13:31:18.124Z,12.10
2023-02-26T13:33:47.067Z,12.40
2023-02-26T13:36:16.725Z,12.60
2023-02-26T13:39:04.883Z,12.80
2023-02-26T13:41:42.934Z,12.50
2023-02-26T13:44:21.868Z,12.50
2023-02-26T13:47:08.427Z,12.90
2023-02-26T13:49:49.207Z,12.50
2023-02-26T13:52:29.244Z,12.40
2023-02-26T13:54:59.438Z,12.40
2023-02-26T13:57:37.614Z,12.50
2023-02-26T14:00:27.469Z,12.10
2023-02-26T14:02:57.420Z,12.30
2023-02-26T14:05:50.978Z,12.50
2023-02-26T14:08:43.130Z,12.30
2023-02-26T14:14:13.485Z,12.50
2023-02-26T14:16:43.001Z,12.40
2023-02-26T14:19:27.504Z,12.30
2023-02-26T14:21:58.793Z,12.40
2023-02-26T14:24:36.470Z,12.70
2023-02-26T14:27:32.390Z,12.30
2023-02-26T14:30:17.968Z,12.50
2023-02-26T14:32:50.859Z,12.80
2023-02-26T14:35:23.166Z,12.80
2023-02-26T14:37:58.874Z,12.70
2023-02-26T14:40:29.995Z,12.40
2023-02-26T14:43:00.499Z,12.00
2023-02-26T14:45:32.343Z,12.40
2023-02-26T14:48:02.460Z,12.60
2023-02-26T14:50:36.502Z,13.00
2023-02-26T14:53:30.712Z,12.90
2023-02-26T14:56:07.417Z,12.40
2023-02-26T14:58:48.304Z,12.30
2023-02-26T15:01:30.125Z,12.60
2023-02-26T15:04:20.960Z,12.40
2023-02-26T15:07:07.366Z,12.40
2023-02-26T15:09:46.377Z,12.60
2023-02-26T15:12:27.531Z,12.80
2023-02-26T15:15:12.218Z,12.80
2023-02-26T15:17:53.978Z,12.80
2023-02-26T15:20:31.864Z,12.70
2023-02-26T15:23:13.660Z,12.30
2023-02-26T15:25:44.345Z,12.00
2023-02-26T15:28:18.863Z,12.00
2023-02-26T15:30:49.703Z,12.30
2023-02-26T15:33:20.724Z,12.60
2023-02-26T15:35:50.013Z,12.60
2023-02-26T15:38:17.795Z,13.00
2023-02-26T15:40:46.457Z,12.70
2023-02-26T15:43:21.226Z,13.10
2023-02-26T15:45:52.635Z,12.90
2023-02-26T15:48:26.065Z,13.00
2023-02-26T15:50:56.766Z,13.30
2023-02-26T15:53:32.007Z,13.40
2023-02-26T15:56:03.263Z,12.90
2023-02-26T15:58:37.244Z,12.40
2023-02-26T16:01:06.196Z,12.80
2023-02-26T16:03:38.129Z,13.10
2023-02-26T16:06:17.911Z,13.20
2023-02-26T16:08:45.828Z,12.80
2023-02-26T16:11:15.383Z,12.80
2023-02-26T16:13:44.785Z,12.70
2023-02-26T16:16:16.634Z,12.60
2023-02-26T16:18:46.846Z,12.70
2023-02-26T16:21:24.621Z,13.10
2023-02-26T16:23:55.434Z,13.20
2023-02-26T16:26:27.722Z,13.30
2023-02-26T16:28:59.960Z,13.40
2023-02-26T16:31:28.707Z,13.10
2023-02-26T16:34:01.688Z,13.40
2023-02-26T16:36:32.857Z,13.30
2023-02-26T16:39:11.504Z,13.30
2023-02-26T16:41:41.579Z,13.40
2023-02-26T16:44:39.082Z,13.30
2023-02-26T16:47:08.242Z,13.30
2023-02-26T16:49:40.071Z,13.50
2023-02-26T16:52:08.300Z,13.60
2023-02-26T16:54:38.763Z,13.60
2023-02-26T16:57:09.105Z,13.50
2023-02-26T16:59:39.408Z,13.50
2023-02-26T17:02:14.300Z,13.50
2023-02-26T17:04:43.670Z,13.40
2023-02-26T17:07:21.406Z,13.20
2023-02-26T17:09:52.032Z,13.20
2023-02-26T17:12:23.034Z,13.30
2023-02-26T17:14:56.661Z,13.40
2023-02-26T17:17:25.155Z,13.40
2023-02-26T17:19:54.312Z,13.20
2023-02-26T17:22:26.703Z,13.30
2023-02-26T17:24:54.613Z,13.20
2023-02-26T17:27:28.056Z,13.30
2023-02-26T17:29:56.460Z,13.10
2023-02-26T17:32:26.729Z,13.30
2023-02-26T17:34:55.955Z,13.70
2023-02-26T17:37:25.312Z,14.20
2023-02-26T17:39:53.133Z,14.50
2023-02-26T17:42:22.886Z,14.60
2023-02-26T17:44:51.713Z,14.70
2023-02-26T17:47:23.234Z,14.90
2023-02-26T17:49:51.479Z,15.00
2023-02-26T17:52:21.085Z,15.00
2023-02-26T17:54:48.937Z,15.00
2023-02-26T17:57:18.797Z,15.20
2023-02-26T17:59:47.176Z,15.10
2023-02-26T18:02:18.081Z,15.20
2023-02-26T18:04:46.137Z,15.20
2023-02-26T18:07:17.044Z,15.30
2023-02-26T18:09:47.262Z,15.30
2023-02-26T18:12:15.794Z,15.30
2023-02-26T18:14:43.963Z,15.20
2023-02-26T18:17:14.501Z,15.20
2023-02-26T18:19:42.763Z,15.30
2023-02-26T18:22:14.020Z,15.30
2023-02-26T18:24:42.168Z,15.30
2023-02-26T18:27:15.366Z,15.30
2023-02-26T18:29:43.921Z,15.20
2023-02-26T18:32:14.693Z,15.10
2023-02-26T18:34:43.029Z,15.10
2023-02-26T18:37:13.934Z,15.10
2023-02-26T18:39:41.968Z,15.20
2023-02-26T18:42:20.812Z,15.20
2023-02-26T18:44:48.853Z,15.20
2023-02-26T18:47:17.621Z,15.30
2023-02-26T18:49:45.825Z,15.20
2023-02-26T18:52:13.912Z,15.30
2023-02-26T18:54:42.011Z,15.30
2023-02-26T18:57:10.613Z,15.20
2023-02-26T18:59:40.145Z,15.20
2023-02-26T19:02:11.739Z,15.20
2023-02-26T19:04:42.166Z,15.20
2023-02-26T19:07:11.004Z,15.20
2023-02-26T19:09:39.028Z,15.10
2023-02-26T19:12:09.036Z,15.10
2023-02-26T19:14:39.664Z,14.90
2023-02-26T19:17:07.494Z,15.00
2023-02-26T19:19:35.438Z,15.10
2023-02-26T19:22:03.212Z,15.20
2023-02-26T19:24:31.022Z,15.10
2023-02-26T19:26:58.900Z,15.20
2023-02-26T19:29:26.728Z,15.20
2023-02-26T19:31:56.070Z,15.20
2023-02-26T19:34:23.919Z,15.10
2023-02-26T19:36:53.263Z,15.10
2023-02-26T19:39:21.176Z,15.10
2023-02-26T19:41:50.357Z,15.20
2023-02-26T19:44:19.998Z,15.10
2023-02-26T19:46:48.015Z,15.10
2023-02-26T19:49:17.977Z,15.20
2023-02-26T19:51:46.173Z,15.20
2023-02-26T19:54:14.148Z,15.20
2023-02-26T19:56:43.338Z,15.20
2023-02-26T19:59:12.197Z,15.10
2023-02-26T20:01:41.403Z,15.10
2023-02-26T20:04:10.313Z,15.10
2023-02-26T20:06:42.045Z,15.10
2023-02-26T20:09:09.949Z,15.10
2023-02-26T20:11:38.476Z,15.10
2023-02-26T20:14:06.457Z,15.10
2023-02-26T20:16:34.360Z,15.10
2023-02-26T20:19:02.287Z,15.20
2023-02-26T20:21:30.096Z,15.10
2023-02-26T20:23:59.262Z,15.00
2023-02-26T20:26:27.149Z,15.10
2023-02-26T20:28:54.959Z,15.10
2023-02-26T20:31:22.973Z,15.20
2023-02-26T20:33:50.898Z,15.10
2023-02-26T20:36:18.703Z,15.20
2023-02-26T20:38:46.501Z,15.20
2023-02-26T20:41:15.722Z,15.10
2023-02-26T20:43:43.606Z,15.20
2023-02-26T20:46:11.498Z,15.20
2023-02-26T20:48:41.731Z,15.20
2023-02-26T20:51:11.914Z,15.20
2023-02-26T20:53:40.142Z,15.20
2023-02-26T20:56:08.858Z,15.20
2023-02-26T20:58:39.098Z,15.20
2023-02-26T21:01:07.004Z,15.20
2023-02-26T21:03:34.823Z,15.30
2023-02-26T21:06:02.598Z,15.20
2023-02-26T21:08:30.381Z,15.20
2023-02-26T21:10:58.184Z,15.30
2023-02-26T21:13:26.128Z,15.20
2023-02-26T21:15:55.226Z,15.20
2023-02-26T21:18:23.021Z,15.10
2023-02-26T21:20:50.955Z,15.10
2023-02-26T21:23:19.043Z,15.10
2023-02-26T21:25:46.961Z,15.10
2023-02-26T21:28:14.783Z,15.20
2023-02-26T21:30:42.650Z,15.20
2023-02-26T21:33:12.552Z,15.10
2023-02-26T21:35:41.160Z,15.10
2023-02-26T21:38:09.234Z,15.10
2023-02-26T21:40:37.492Z,15.10
2023-02-26T21:43:05.315Z,15.10
2023-02-26T21:45:36.017Z,15.10
2023-02-26T21:48:04.376Z,15.10
2023-02-26T21:50:33.651Z,15.10
2023-02-26T21:53:01.565Z,15.10
2023-02-26T21:55:29.430Z,15.10
2023-02-26T21:57:57.253Z,15.10
2023-02-26T22:00:25.256Z,15.00
2023-02-26T22:02:53.105Z,15.10
2023-02-26T22:05:20.867Z,15.10
2023-02-26T22:07:50.058Z,15.10
2023-02-26T22:10:17.921Z,15.00
2023-02-26T22:12:45.717Z,15.00
2023-02-26T22:15:13.508Z,15.00
2023-02-26T22:17:41.364Z,14.90
2023-02-26T22:20:10.771Z,15.00
2023-02-26T22:22:39.132Z,15.00
2023-02-26T22:25:11.661Z,14.90
2023-02-26T22:27:39.686Z,14.90
2023-02-26T22:30:08.627Z,15.00
2023-02-26T22:32:36.622Z,14.90
2023-02-26T22:35:04.593Z,15.00
2023-02-26T22:37:32.762Z,14.90
2023-02-26T22:40:00.573Z,14.90
2023-02-26T22:42:29.710Z,14.90
2023-02-26T22:44:57.940Z,15.00
2023-02-26T22:47:25.855Z,15.00
2023-02-26T22:49:53.631Z,14.90
2023-02-26T22:52:21.551Z,15.00
2023-02-26T22:54:49.361Z,15.00
2023-02-26T22:57:17.218Z,14.90
2023-02-26T22:59:46.393Z,14.90
2023-02-26T23:02:14.198Z,14.90
2023-02-26T23:04:42.026Z,14.90
2023-02-26T23:07:09.862Z,14.80
2023-02-26T23:09:37.692Z,14.90
2023-02-26T23:12:06.063Z,14.80
2023-02-26T23:14:33.854Z,14.90
2023-02-26T23:17:03.993Z,14.90
2023-02-26T23:19:31.838Z,14.90
2023-02-26T23:21:59.613Z,14.90
2023-02-26T23:24:27.582Z,14.90
2023-02-26T23:26:55.448Z,14.80
2023-02-26T23:29:23.295Z,14.90
2023-02-26T23:31:51.245Z,14.80
2023-02-26T23:34:20.584Z,14.90
2023-02-26T23:36:48.350Z,14.80
2023-02-26T23:39:16.188Z,14.80
2023-02-26T23:41:43.998Z,14.80
2023-02-26T23:44:11.777Z,14.90
2023-02-26T23:46:39.589Z,14.80
2023-02-26T23:49:09.215Z,14.80
2023-02-26T23:51:38.348Z,14.90
2023-02-26T23:54:06.266Z,14.80
2023-02-26T23:56:34.113Z,14.80
2023-02-26T23:59:01.953Z,14.80
